Time;durP1;ratioP1;P1;durP2;ratioP2;P2;SDS_P1;SDS_P2;PMS_P1;PMS_P2;Temp;Humidity;BMP_temperature;BMP_pressure;BME280_temperature;BME280_humidity;BME280_pressure;Samples;Min_cycle;Max_cycle;Signal;HPM_P1;HPM_P2
2023/01/17 00:00:09;;;;;;;;;7.75;6.00;;;;;;;;4878188;29;45416;-80
2023/01/17 00:02:34;;;;;;;;;6.50;6.50;;;;;;;;4878886;29;45368;-80
2023/01/17 00:10:27;;;;;;;;;8.75;6.00;;;;;;;;4898282;29;45707;-79
2023/01/17 00:12:56;;;;;;;;;7.75;7.75;;;;;;;;4898042;29;45667;-80
2023/01/17 00:15:24;;;;;;;;;8.00;7.75;;;;;;;;4897470;29;45343;-79
2023/01/17 00:17:50;;;;;;;;;8.25;6.75;;;;;;;;4894269;29;46401;-80
2023/01/17 00:26:14;;;;;;;;;7.25;6.25;;;;;;;;4880332;29;45508;-81
2023/01/17 01:35:16;;;;;;;;;10.00;10.00;;;;;;;;4917020;28;45435;-79
2023/01/17 01:37:41;;;;;;;;;15.25;13.25;;;;;;;;4917093;28;45413;-80
2023/01/17 01:40:07;;;;;;;;;10.00;10.00;;;;;;;;4917356;28;45552;-80
2023/01/17 01:42:32;;;;;;;;;9.50;9.50;;;;;;;;4916191;28;46419;-80
2023/01/17 01:44:57;;;;;;;;;11.75;11.00;;;;;;;;4919299;28;45357;-80
2023/01/17 01:47:25;;;;;;;;;11.50;8.25;;;;;;;;4920538;28;45706;-80
2023/01/17 01:49:51;;;;;;;;;10.75;8.00;;;;;;;;4920838;28;45410;-80
2023/01/17 01:52:18;;;;;;;;;13.75;11.25;;;;;;;;4920128;28;45429;-79
2023/01/17 01:54:46;;;;;;;;;11.50;11.25;;;;;;;;4920446;28;45378;-80
2023/01/17 01:57:13;;;;;;;;;11.00;11.00;;;;;;;;4920369;28;45366;-79
2023/01/17 01:59:41;;;;;;;;;10.25;10.00;;;;;;;;4920931;28;45358;-80
2023/01/17 02:02:06;;;;;;;;;9.75;9.75;;;;;;;;4920752;28;46031;-79
2023/01/17 02:04:32;;;;;;;;;11.00;9.00;;;;;;;;4873665;28;1398790;-79
2023/01/17 02:07:01;;;;;;;;;9.75;9.75;;;;;;;;4922091;28;45386;-81
2023/01/17 02:09:27;;;;;;;;;11.00;11.00;;;;;;;;4922631;28;45477;-80
2023/01/17 02:11:52;;;;;;;;;12.50;12.00;;;;;;;;4920929;28;46212;-80
2023/01/17 02:14:18;;;;;;;;;13.00;11.00;;;;;;;;4920821;28;45342;-80
2023/01/17 02:16:46;;;;;;;;;11.00;9.25;;;;;;;;4920895;28;45331;-80
2023/01/17 02:19:30;;;;;;;;;12.00;11.00;;;;;;;;4921169;28;45331;-79
2023/01/17 02:21:58;;;;;;;;;11.50;10.25;;;;;;;;4920804;28;45408;-79
2023/01/17 02:24:29;;;;;;;;;11.25;9.00;;;;;;;;4920072;28;45438;-79
2023/01/17 02:26:56;;;;;;;;;10.75;9.25;;;;;;;;4919710;28;45393;-80
2023/01/17 02:29:40;;;;;;;;;12.00;12.00;;;;;;;;4919996;28;45347;-79
2023/01/17 02:32:11;;;;;;;;;11.75;8.25;;;;;;;;4919862;28;46198;-79
2023/01/17 02:34:42;;;;;;;;;13.00;12.50;;;;;;;;4919734;28;45483;-79
2023/01/17 02:37:36;;;;;;;;;12.00;12.00;;;;;;;;4919862;28;45381;-79
2023/01/17 02:40:05;;;;;;;;;14.75;11.25;;;;;;;;4898135;29;45452;-79
2023/01/17 02:42:36;;;;;;;;;12.00;11.00;;;;;;;;4882436;29;45701;-79
2023/01/17 02:45:02;;;;;;;;;9.50;6.50;;;;;;;;4898363;29;45449;-80
2023/01/17 02:47:28;;;;;;;;;9.25;9.25;;;;;;;;4898377;29;45414;-79
2023/01/17 02:49:56;;;;;;;;;7.25;7.25;;;;;;;;4898544;29;45550;-79
2023/01/17 02:52:24;;;;;;;;;9.50;9.50;;;;;;;;4898237;29;46788;-79
2023/01/17 02:55:02;;;;;;;;;9.25;8.75;;;;;;;;4898090;29;45424;-79
2023/01/17 02:57:36;;;;;;;;;6.00;6.00;;;;;;;;4898290;29;45384;-78
2023/01/17 03:00:12;;;;;;;;;9.00;7.25;;;;;;;;4898538;29;45328;-79
2023/01/17 03:02:56;;;;;;;;;9.50;9.50;;;;;;;;4898309;29;46071;-79
2023/01/17 03:05:30;;;;;;;;;9.75;9.25;;;;;;;;4897946;29;45868;-79
2023/01/17 03:07:56;;;;;;;;;10.75;8.00;;;;;;;;4898264;29;45390;-79
2023/01/17 03:10:22;;;;;;;;;10.75;10.00;;;;;;;;4897738;29;45288;-80
2023/01/17 03:12:47;;;;;;;;;9.75;9.75;;;;;;;;4898120;29;47353;-80
2023/01/17 03:15:14;;;;;;;;;10.25;10.00;;;;;;;;4898231;29;45475;-79
2023/01/17 03:17:42;;;;;;;;;9.25;9.25;;;;;;;;4919747;28;45290;-79
2023/01/17 03:20:08;;;;;;;;;13.25;10.00;;;;;;;;4919247;28;45404;-79
2023/01/17 03:22:33;;;;;;;;;12.00;9.25;;;;;;;;4919346;28;45410;-80
2023/01/17 03:24:58;;;;;;;;;12.50;10.00;;;;;;;;4919112;28;45513;-80
2023/01/17 03:27:24;;;;;;;;;12.50;11.00;;;;;;;;4919114;28;45424;-80
2023/01/17 03:29:49;;;;;;;;;14.75;10.50;;;;;;;;4913399;28;45418;-80
2023/01/17 03:32:14;;;;;;;;;13.00;9.25;;;;;;;;4889394;28;46126;-79
2023/01/17 03:34:39;;;;;;;;;11.25;10.50;;;;;;;;4880823;28;45347;-79
2023/01/17 03:37:04;;;;;;;;;10.25;7.75;;;;;;;;4881091;29;45309;-79
2023/01/17 03:39:30;;;;;;;;;10.50;9.00;;;;;;;;4881089;29;45267;-79
2023/01/17 03:41:55;;;;;;;;;11.00;9.00;;;;;;;;4881071;29;45283;-79
2023/01/17 03:44:20;;;;;;;;;9.75;9.75;;;;;;;;4880933;29;45572;-79
2023/01/17 03:46:45;;;;;;;;;10.50;9.75;;;;;;;;4890545;29;45488;-79
2023/01/17 03:49:10;;;;;;;;;10.75;7.00;;;;;;;;4900102;28;45418;-79
2023/01/17 03:51:36;;;;;;;;;10.75;10.75;;;;;;;;4905053;28;46194;-79
2023/01/17 03:54:01;;;;;;;;;12.50;9.25;;;;;;;;4917892;28;45314;-79
2023/01/17 03:56:26;;;;;;;;;9.25;8.00;;;;;;;;4918814;28;45383;-78
2023/01/17 03:58:52;;;;;;;;;14.50;11.50;;;;;;;;4917449;28;45251;-80
2023/01/17 04:01:17;;;;;;;;;10.50;10.00;;;;;;;;4899658;28;46084;-80
2023/01/17 04:03:43;;;;;;;;;11.25;10.00;;;;;;;;4884324;28;46086;-80
2023/01/17 04:06:08;;;;;;;;;13.50;10.50;;;;;;;;4898756;28;45451;-79
2023/01/17 04:08:33;;;;;;;;;12.75;12.00;;;;;;;;4899092;28;45607;-80
2023/01/17 04:10:58;;;;;;;;;14.00;12.00;;;;;;;;4897759;29;45615;-80
2023/01/17 04:13:23;;;;;;;;;14.25;14.25;;;;;;;;4899090;28;45470;-79
2023/01/17 04:15:49;;;;;;;;;19.25;14.75;;;;;;;;4898865;28;45333;-79
2023/01/17 04:18:16;;;;;;;;;15.50;11.75;;;;;;;;4899040;28;45465;-80
2023/01/17 04:20:41;;;;;;;;;15.25;12.25;;;;;;;;4898921;29;46466;-79
2023/01/17 04:23:06;;;;;;;;;14.50;12.25;;;;;;;;4898665;29;45351;-79
2023/01/17 04:25:32;;;;;;;;;15.50;13.50;;;;;;;;4899236;28;45314;-79
2023/01/17 04:27:58;;;;;;;;;13.50;12.00;;;;;;;;4899552;29;45332;-79
2023/01/17 04:30:23;;;;;;;;;14.25;11.75;;;;;;;;4899042;29;46082;-79
2023/01/17 04:32:49;;;;;;;;;15.75;14.00;;;;;;;;4898899;28;45522;-79
2023/01/17 04:35:14;;;;;;;;;18.50;15.75;;;;;;;;4899428;29;45330;-79
2023/01/17 04:37:39;;;;;;;;;14.50;13.50;;;;;;;;4898949;28;45433;-80
2023/01/17 04:40:05;;;;;;;;;15.75;14.75;;;;;;;;4899002;28;46240;-79
2023/01/17 04:42:30;;;;;;;;;13.50;13.25;;;;;;;;4899192;28;45390;-80
2023/01/17 04:44:55;;;;;;;;;17.00;16.00;;;;;;;;4899265;28;45435;-79
2023/01/17 04:47:21;;;;;;;;;15.25;13.00;;;;;;;;4899111;28;45367;-80
2023/01/17 04:49:46;;;;;;;;;18.25;17.25;;;;;;;;4897613;29;48102;-79
2023/01/17 04:52:11;;;;;;;;;21.25;18.75;;;;;;;;4908469;28;45389;-80
2023/01/17 04:54:37;;;;;;;;;17.75;14.50;;;;;;;;4917960;28;45235;-78
2023/01/17 04:57:02;;;;;;;;;18.50;17.25;;;;;;;;4917884;28;45457;-80
2023/01/17 04:59:27;;;;;;;;;18.00;14.00;;;;;;;;4917876;28;45775;-79
2023/01/17 05:01:52;;;;;;;;;20.50;19.00;;;;;;;;4916797;28;46146;-79
2023/01/17 05:04:18;;;;;;;;;19.00;15.75;;;;;;;;4917761;28;45528;-80
2023/01/17 05:06:43;;;;;;;;;13.00;13.00;;;;;;;;4918298;28;45351;-79
2023/01/17 05:09:09;;;;;;;;;14.75;14.75;;;;;;;;4918324;28;45928;-78
2023/01/17 05:11:34;;;;;;;;;17.25;17.00;;;;;;;;4919097;28;45282;-78
2023/01/17 05:13:59;;;;;;;;;21.50;18.00;;;;;;;;4918710;28;45333;-79
2023/01/17 05:16:24;;;;;;;;;15.75;13.75;;;;;;;;4916533;28;45647;-79
2023/01/17 05:18:51;;;;;;;;;17.00;15.25;;;;;;;;4918523;28;47111;-79
2023/01/17 05:21:16;;;;;;;;;13.50;13.50;;;;;;;;4920815;28;45420;-80
2023/01/17 05:23:41;;;;;;;;;14.50;11.75;;;;;;;;4920829;28;45364;-79
2023/01/17 05:26:07;;;;;;;;;22.75;17.50;;;;;;;;4921061;28;45409;-79
2023/01/17 05:28:32;;;;;;;;;18.75;14.25;;;;;;;;4920980;28;46304;-79
2023/01/17 05:30:57;;;;;;;;;18.00;16.75;;;;;;;;4920705;28;45385;-79
2023/01/17 05:33:22;;;;;;;;;20.25;19.75;;;;;;;;4920834;28;45438;-80
2023/01/17 05:35:48;;;;;;;;;21.75;21.25;;;;;;;;4920561;28;45457;-79
2023/01/17 05:38:13;;;;;;;;;20.50;18.75;;;;;;;;4920645;28;45968;-79
2023/01/17 05:40:38;;;;;;;;;18.50;17.00;;;;;;;;4920785;28;45360;-80
2023/01/17 05:43:03;;;;;;;;;16.75;14.00;;;;;;;;4920527;28;45351;-79
2023/01/17 05:45:30;;;;;;;;;18.50;16.00;;;;;;;;4920835;28;45422;-80
2023/01/17 05:47:56;;;;;;;;;19.00;19.00;;;;;;;;4920453;28;45337;-79
2023/01/17 05:50:23;;;;;;;;;21.00;17.50;;;;;;;;4920736;28;45391;-79
2023/01/17 05:52:50;;;;;;;;;19.00;18.75;;;;;;;;4920402;28;45350;-79
2023/01/17 05:55:15;;;;;;;;;20.00;20.00;;;;;;;;4920250;28;45375;-79
2023/01/17 05:57:40;;;;;;;;;20.00;17.50;;;;;;;;4920301;28;46586;-79
2023/01/17 06:00:06;;;;;;;;;17.75;16.25;;;;;;;;4920506;28;45347;-79
2023/01/17 06:02:31;;;;;;;;;23.25;19.75;;;;;;;;4919291;28;45379;-80
2023/01/17 06:04:56;;;;;;;;;15.50;14.50;;;;;;;;4920348;28;45369;-80
2023/01/17 06:07:21;;;;;;;;;20.75;18.50;;;;;;;;4920161;28;46636;-80
2023/01/17 06:09:47;;;;;;;;;23.25;18.25;;;;;;;;4920282;28;45389;-80
2023/01/17 06:12:12;;;;;;;;;17.00;14.00;;;;;;;;4920526;28;45300;-79
2023/01/17 06:14:37;;;;;;;;;23.00;18.75;;;;;;;;4920411;28;45378;-81
2023/01/17 06:17:02;;;;;;;;;24.50;23.00;;;;;;;;4918660;28;46437;-80
2023/01/17 06:19:28;;;;;;;;;17.25;17.00;;;;;;;;4918783;28;45763;-79
2023/01/17 06:21:53;;;;;;;;;17.75;16.75;;;;;;;;4920514;28;45344;-79
2023/01/17 06:24:19;;;;;;;;;21.50;18.00;;;;;;;;4920090;28;45339;-79
2023/01/17 06:26:44;;;;;;;;;15.50;15.50;;;;;;;;4920123;28;46134;-79
2023/01/17 06:29:10;;;;;;;;;23.00;19.00;;;;;;;;4919784;28;45358;-79
2023/01/17 06:31:35;;;;;;;;;20.25;19.00;;;;;;;;4901491;28;45297;-80
2023/01/17 06:34:01;;;;;;;;;17.25;12.25;;;;;;;;4900968;28;45350;-79
2023/01/17 06:36:27;;;;;;;;;17.00;16.75;;;;;;;;4900740;28;46163;-80
2023/01/17 06:38:52;;;;;;;;;22.00;19.25;;;;;;;;4900442;28;45362;-75
2023/01/17 06:41:17;;;;;;;;;21.00;18.75;;;;;;;;4899247;28;45232;-77
2023/01/17 06:43:42;;;;;;;;;22.50;21.25;;;;;;;;4896021;29;45517;-80
2023/01/17 06:46:07;;;;;;;;;19.75;19.75;;;;;;;;4900063;28;46459;-79
2023/01/17 06:48:32;;;;;;;;;16.25;13.00;;;;;;;;4899677;29;45888;-79
2023/01/17 06:50:58;;;;;;;;;18.50;18.50;;;;;;;;4900785;28;45346;-80
2023/01/17 06:53:23;;;;;;;;;22.75;21.00;;;;;;;;4902643;28;46082;-78
2023/01/17 06:55:49;;;;;;;;;18.25;17.00;;;;;;;;4900027;28;45375;-77
2023/01/17 06:58:14;;;;;;;;;18.25;18.25;;;;;;;;4900111;29;45386;-79
2023/01/17 07:00:39;;;;;;;;;24.50;22.00;;;;;;;;4900224;28;45375;-78
2023/01/17 07:03:06;;;;;;;;;22.00;21.00;;;;;;;;4900057;29;45319;-78
2023/01/17 07:05:31;;;;;;;;;27.50;17.50;;;;;;;;4894465;29;45352;-78
2023/01/17 07:07:57;;;;;;;;;20.50;20.00;;;;;;;;4900199;28;45649;-77
2023/01/17 07:10:22;;;;;;;;;19.50;18.25;;;;;;;;4900469;28;45366;-77
2023/01/17 07:12:47;;;;;;;;;18.00;17.25;;;;;;;;4900296;28;45383;-77
2023/01/17 07:15:12;;;;;;;;;24.50;23.75;;;;;;;;4899788;28;45594;-77
2023/01/17 07:17:38;;;;;;;;;27.25;23.75;;;;;;;;4900205;28;45530;-77
2023/01/17 07:20:03;;;;;;;;;19.75;19.00;;;;;;;;4900033;28;45357;-77
2023/01/17 07:22:29;;;;;;;;;17.50;17.50;;;;;;;;4900248;28;45508;-78
2023/01/17 07:24:57;;;;;;;;;20.50;20.50;;;;;;;;4893562;28;45973;-78
2023/01/17 07:27:22;;;;;;;;;24.00;20.50;;;;;;;;4882931;29;45297;-77
2023/01/17 07:29:48;;;;;;;;;19.25;16.75;;;;;;;;4879288;29;45417;-77
2023/01/17 07:32:13;;;;;;;;;31.75;26.00;;;;;;;;4881073;29;45455;-77
2023/01/17 07:34:38;;;;;;;;;31.25;29.75;;;;;;;;4881147;29;45494;-77
2023/01/17 07:37:04;;;;;;;;;26.00;22.50;;;;;;;;4900701;28;45450;-77
2023/01/17 07:39:30;;;;;;;;;23.50;18.75;;;;;;;;4898105;28;45333;-77
2023/01/17 07:41:55;;;;;;;;;21.25;20.25;;;;;;;;4881869;28;45260;-77
2023/01/17 07:44:20;;;;;;;;;21.25;19.00;;;;;;;;4880489;28;45654;-78
2023/01/17 07:46:45;;;;;;;;;20.00;17.25;;;;;;;;4880783;29;45530;-78
2023/01/17 07:49:10;;;;;;;;;26.25;21.50;;;;;;;;4881027;29;45409;-77
2023/01/17 07:51:36;;;;;;;;;18.00;17.00;;;;;;;;4891123;28;45364;-78
2023/01/17 07:54:01;;;;;;;;;28.75;28.00;;;;;;;;4917473;28;46310;-77
2023/01/17 07:56:26;;;;;;;;;30.50;24.00;;;;;;;;4891199;28;45467;-78
2023/01/17 07:58:51;;;;;;;;;31.00;23.75;;;;;;;;4897000;28;45279;-78
2023/01/17 08:01:16;;;;;;;;;22.50;19.75;;;;;;;;4889203;29;45326;-77
2023/01/17 08:03:42;;;;;;;;;26.00;20.25;;;;;;;;4880428;29;45361;-77
2023/01/17 08:06:22;;;;;;;;;21.00;17.50;;;;;;;;4880745;29;45382;-77
2023/01/17 08:08:47;;;;;;;;;17.50;15.75;;;;;;;;4899020;29;45411;-77
2023/01/17 08:11:12;;;;;;;;;20.25;17.75;;;;;;;;4899549;29;45323;-77
2023/01/17 08:13:38;;;;;;;;;18.75;16.75;;;;;;;;4900305;28;46063;-76
2023/01/17 08:16:04;;;;;;;;;16.50;16.25;;;;;;;;4900365;28;45434;-76
2023/01/17 08:18:29;;;;;;;;;23.00;18.75;;;;;;;;4892884;28;45624;-77
2023/01/17 08:20:54;;;;;;;;;16.50;15.75;;;;;;;;4893646;28;45331;-77
2023/01/17 08:23:20;;;;;;;;;18.50;15.25;;;;;;;;4899915;28;45415;-78
2023/01/17 08:25:45;;;;;;;;;22.75;22.75;;;;;;;;4899233;28;45282;-77
2023/01/17 08:28:10;;;;;;;;;29.75;24.00;;;;;;;;4898905;28;45292;-78
2023/01/17 08:30:36;;;;;;;;;25.50;22.50;;;;;;;;4897858;29;45481;-78
2023/01/17 08:33:01;;;;;;;;;25.75;24.25;;;;;;;;4897610;29;48330;-77
2023/01/17 08:35:26;;;;;;;;;27.50;24.25;;;;;;;;4899143;28;45271;-77
2023/01/17 08:37:52;;;;;;;;;28.75;23.75;;;;;;;;4898984;28;45546;-78
2023/01/17 08:40:18;;;;;;;;;22.75;20.75;;;;;;;;4899333;28;45359;-78
2023/01/17 08:42:43;;;;;;;;;29.00;26.25;;;;;;;;4898494;28;46355;-79
2023/01/17 08:45:09;;;;;;;;;30.25;26.25;;;;;;;;4899089;28;45373;-79
2023/01/17 08:47:35;;;;;;;;;27.00;23.75;;;;;;;;4899015;28;45276;-80
2023/01/17 08:50:00;;;;;;;;;23.75;22.75;;;;;;;;4899199;28;45586;-78
2023/01/17 08:52:26;;;;;;;;;35.25;29.75;;;;;;;;4909982;28;45611;-79
2023/01/17 08:54:52;;;;;;;;;30.50;25.50;;;;;;;;4918299;28;45369;-79
2023/01/17 08:57:18;;;;;;;;;31.00;25.25;;;;;;;;4917774;28;45362;-79
2023/01/17 08:59:43;;;;;;;;;28.00;23.50;;;;;;;;4917837;28;45410;-79
2023/01/17 09:02:13;;;;;;;;;27.00;24.50;;;;;;;;4917849;28;45507;-78
2023/01/17 09:04:39;;;;;;;;;26.50;24.00;;;;;;;;4917833;28;45349;-78
2023/01/17 09:07:06;;;;;;;;;28.25;24.25;;;;;;;;4917450;28;45511;-78
2023/01/17 09:09:31;;;;;;;;;23.00;18.50;;;;;;;;4917826;28;45486;-78
2023/01/17 09:11:56;;;;;;;;;28.00;25.75;;;;;;;;4915952;28;45668;-78
2023/01/17 09:14:21;;;;;;;;;23.25;21.25;;;;;;;;4917691;28;45540;-77
2023/01/17 09:16:47;;;;;;;;;33.25;26.25;;;;;;;;4917812;28;45311;-77
2023/01/17 09:19:12;;;;;;;;;34.75;24.50;;;;;;;;4917674;28;45303;-77
2023/01/17 09:21:38;;;;;;;;;28.75;23.75;;;;;;;;4917491;28;46104;-77
2023/01/17 09:24:03;;;;;;;;;25.25;21.00;;;;;;;;4917602;28;45236;-77
2023/01/17 09:26:28;;;;;;;;;20.00;20.00;;;;;;;;4917619;28;45346;-78
2023/01/17 09:28:54;;;;;;;;;20.50;20.50;;;;;;;;4917560;28;45325;-78
2023/01/17 09:31:20;;;;;;;;;25.75;23.00;;;;;;;;4915898;28;47445;-77
2023/01/17 09:33:45;;;;;;;;;26.00;23.50;;;;;;;;4917356;28;45251;-77
2023/01/17 09:36:11;;;;;;;;;24.25;21.50;;;;;;;;4915833;28;45355;-76
2023/01/17 09:38:36;;;;;;;;;38.00;27.75;;;;;;;;4917587;28;45347;-77
2023/01/17 09:41:02;;;;;;;;;30.50;25.75;;;;;;;;4916910;28;47385;-77
2023/01/17 09:43:39;;;;;;;;;23.00;21.00;;;;;;;;4915602;28;45744;-77
2023/01/17 09:46:05;;;;;;;;;27.25;26.25;;;;;;;;4917236;28;45381;-77
2023/01/17 09:48:35;;;;;;;;;23.75;21.00;;;;;;;;4917318;28;45356;-77
2023/01/17 09:51:07;;;;;;;;;23.25;22.00;;;;;;;;4916635;28;45321;-77
2023/01/17 09:53:37;;;;;;;;;20.25;19.25;;;;;;;;4916978;28;45323;-77
2023/01/17 09:56:05;;;;;;;;;24.25;21.50;;;;;;;;4916935;28;45365;-77
2023/01/17 09:58:41;;;;;;;;;17.25;15.00;;;;;;;;4917016;28;45520;-78
2023/01/17 10:01:21;;;;;;;;;23.25;21.25;;;;;;;;4917135;28;45479;-77
2023/01/17 10:03:56;;;;;;;;;24.25;21.75;;;;;;;;4916903;28;45362;-77
2023/01/17 10:06:31;;;;;;;;;22.25;20.00;;;;;;;;4920322;28;45412;-77
2023/01/17 10:08:56;;;;;;;;;21.50;20.25;;;;;;;;4919831;28;45433;-77
2023/01/17 10:11:41;;;;;;;;;20.00;18.50;;;;;;;;4920208;28;45403;-76
2023/01/17 10:14:16;;;;;;;;;11.00;11.00;;;;;;;;4918786;28;45808;-77
2023/01/17 10:17:06;;;;;;;;;11.75;11.75;;;;;;;;4920470;28;45485;-77
2023/01/17 10:19:39;;;;;;;;;20.75;17.00;;;;;;;;4920379;28;45307;-77
2023/01/17 10:22:11;;;;;;;;;16.75;15.75;;;;;;;;4918442;28;48367;-77
2023/01/17 10:24:51;;;;;;;;;17.25;17.25;;;;;;;;4919771;28;45465;-76
2023/01/17 10:27:33;;;;;;;;;24.75;20.75;;;;;;;;4920145;28;45347;-76
2023/01/17 10:30:00;;;;;;;;;26.75;16.00;;;;;;;;4920022;28;45335;-77
2023/01/17 10:32:28;;;;;;;;;18.50;17.00;;;;;;;;4919681;28;47343;-76
2023/01/17 10:34:59;;;;;;;;;20.75;20.00;;;;;;;;4920055;28;45691;-77
2023/01/17 10:37:41;;;;;;;;;20.75;18.00;;;;;;;;4919992;28;45478;-77
2023/01/17 10:40:19;;;;;;;;;2.00;1.00;;;;;;;;4919504;28;45613;-77
2023/01/17 10:42:49;;;;;;;;;15.50;14.00;;;;;;;;4918360;28;47714;-77
2023/01/17 10:45:14;;;;;;;;;17.50;14.50;;;;;;;;4919677;28;45445;-78
2023/01/17 10:47:41;;;;;;;;;23.50;19.00;;;;;;;;4919752;28;45302;-77
2023/01/17 10:50:10;;;;;;;;;23.75;19.25;;;;;;;;4919803;28;45318;-77
2023/01/17 10:52:35;;;;;;;;;9.50;9.00;;;;;;;;4919368;28;45389;-78
2023/01/17 10:55:25;;;;;;;;;19.00;16.25;;;;;;;;4919752;28;45548;-78
2023/01/17 10:57:51;;;;;;;;;21.75;18.50;;;;;;;;4918427;28;45391;-79
2023/01/17 11:00:42;;;;;;;;;24.75;24.00;;;;;;;;4919855;28;45558;-79
2023/01/17 11:03:08;;;;;;;;;19.25;17.25;;;;;;;;4919994;28;45325;-78
2023/01/17 11:05:33;;;;;;;;;13.25;12.25;;;;;;;;4921349;28;45373;-78
2023/01/17 11:08:00;;;;;;;;;17.25;14.00;;;;;;;;4919258;28;45319;-77
2023/01/17 11:11:03;;;;;;;;;19.00;17.00;;;;;;;;4920214;28;45462;-77
2023/01/17 11:13:34;;;;;;;;;22.25;19.75;;;;;;;;4899320;29;46451;-78
2023/01/17 11:16:02;;;;;;;;;13.50;12.50;;;;;;;;4897769;29;45358;-78
2023/01/17 11:18:33;;;;;;;;;22.50;17.50;;;;;;;;4899496;29;45587;-78
2023/01/17 11:21:24;;;;;;;;;15.25;12.75;;;;;;;;4899671;29;45435;-78
2023/01/17 11:23:53;;;;;;;;;18.00;15.00;;;;;;;;4894007;28;45952;-77
2023/01/17 11:26:21;;;;;;;;;16.50;13.75;;;;;;;;4898291;29;45563;-78
2023/01/17 11:28:46;;;;;;;;;20.25;16.50;;;;;;;;4897987;29;45447;-77
2023/01/17 11:31:13;;;;;;;;;5.00;3.00;;;;;;;;4898098;29;45396;-77
2023/01/17 11:33:52;;;;;;;;;21.75;19.00;;;;;;;;4897736;29;46233;-78
2023/01/17 11:36:27;;;;;;;;;14.25;14.25;;;;;;;;4897847;29;45478;-78
2023/01/17 11:38:55;;;;;;;;;16.50;14.50;;;;;;;;4898265;29;45549;-78
2023/01/17 11:41:21;;;;;;;;;18.50;16.75;;;;;;;;4898167;29;45379;-77
2023/01/17 11:43:50;;;;;;;;;24.75;17.25;;;;;;;;4896974;29;46054;-78
2023/01/17 11:46:17;;;;;;;;;21.75;19.50;;;;;;;;4899971;28;45513;-78
2023/01/17 11:48:46;;;;;;;;;17.25;17.25;;;;;;;;4900174;28;45383;-78
2023/01/17 11:51:19;;;;;;;;;14.00;14.00;;;;;;;;4901635;28;45386;-77
2023/01/17 11:53:47;;;;;;;;;19.50;14.75;;;;;;;;4918731;28;45364;-77
2023/01/17 11:56:32;;;;;;;;;16.50;14.25;;;;;;;;4918734;28;45401;-77
2023/01/17 11:59:24;;;;;;;;;15.50;12.50;;;;;;;;4918564;28;45320;-77
2023/01/17 12:02:04;;;;;;;;;16.50;14.75;;;;;;;;4881750;29;45482;-78
2023/01/17 12:04:29;;;;;;;;;15.00;12.50;;;;;;;;4896961;29;46309;-78
2023/01/17 12:07:04;;;;;;;;;18.50;15.50;;;;;;;;4892897;29;45383;-78
2023/01/17 12:09:38;;;;;;;;;16.75;16.25;;;;;;;;4851811;29;45565;-78
2023/01/17 12:15:17;;;;;;;;;19.50;14.75;;;;;;;;4876969;29;45468;-78
2023/01/17 12:17:43;;;;;;;;;16.00;16.00;;;;;;;;4876796;29;45479;-78
2023/01/17 12:20:15;;;;;;;;;13.00;10.00;;;;;;;;4877807;29;45432;-79
2023/01/17 12:23:07;;;;;;;;;12.00;12.00;;;;;;;;4876595;29;45563;-79
2023/01/17 12:25:53;;;;;;;;;9.25;8.25;;;;;;;;4861187;29;45507;-79
2023/01/17 12:28:36;;;;;;;;;12.00;12.00;;;;;;;;4876418;29;45442;-78
2023/01/17 12:31:11;;;;;;;;;11.00;10.00;;;;;;;;4876154;29;45433;-78
2023/01/17 12:33:50;;;;;;;;;13.75;11.75;;;;;;;;4876491;29;45545;-78
2023/01/17 12:36:29;;;;;;;;;15.25;12.25;;;;;;;;4875458;29;46559;-78
2023/01/17 12:38:55;;;;;;;;;14.00;11.75;;;;;;;;4888922;29;45434;-76
2023/01/17 12:41:25;;;;;;;;;9.75;9.75;;;;;;;;4897310;28;45395;-78
2023/01/17 12:43:53;;;;;;;;;12.00;12.00;;;;;;;;4897559;28;45458;-77
2023/01/17 12:46:19;;;;;;;;;9.00;8.75;;;;;;;;4897051;28;46350;-78
2023/01/17 12:48:47;;;;;;;;;13.50;10.50;;;;;;;;4896535;28;45540;-76
2023/01/17 12:51:13;;;;;;;;;12.25;12.00;;;;;;;;4898079;28;45401;-77
2023/01/17 12:53:41;;;;;;;;;12.25;8.75;;;;;;;;4896685;28;45654;-78
2023/01/17 12:56:15;;;;;;;;;13.00;9.00;;;;;;;;4897074;28;46244;-77
2023/01/17 12:58:49;;;;;;;;;10.75;8.00;;;;;;;;4897394;28;45641;-77
2023/01/17 13:01:28;;;;;;;;;11.25;9.25;;;;;;;;4896896;28;45419;-73
2023/01/17 13:04:12;;;;;;;;;8.50;8.50;;;;;;;;4896981;28;45386;-73
2023/01/17 13:06:50;;;;;;;;;11.25;9.00;;;;;;;;4896993;28;45477;-76
2023/01/17 13:09:19;;;;;;;;;11.50;10.75;;;;;;;;4896936;28;45430;-75
2023/01/17 13:11:48;;;;;;;;;15.75;8.75;;;;;;;;4897948;29;45339;-75
2023/01/17 13:14:13;;;;;;;;;15.25;14.75;;;;;;;;4897880;28;45411;-75
2023/01/17 13:16:47;;;;;;;;;7.00;6.00;;;;;;;;4898916;28;46334;-75
2023/01/17 13:19:25;;;;;;;;;10.00;10.00;;;;;;;;4897093;28;45605;-75
2023/01/17 13:21:51;;;;;;;;;8.25;8.25;;;;;;;;4898961;28;45438;-75
2023/01/17 13:24:22;;;;;;;;;13.75;12.00;;;;;;;;4898447;28;45370;-75
2023/01/17 13:26:47;;;;;;;;;12.25;8.75;;;;;;;;4898355;28;45500;-74
2023/01/17 13:29:28;;;;;;;;;10.00;8.00;;;;;;;;4898682;28;45312;-74
2023/01/17 13:32:16;;;;;;;;;10.50;10.50;;;;;;;;4898996;28;45377;-74
2023/01/17 13:34:51;;;;;;;;;17.00;13.75;;;;;;;;4895468;28;45546;-75
2023/01/17 13:37:35;;;;;;;;;7.75;7.25;;;;;;;;4898371;28;45953;-74
2023/01/17 13:40:20;;;;;;;;;10.00;8.00;;;;;;;;4899764;28;45428;-74
2023/01/17 13:42:48;;;;;;;;;13.50;13.50;;;;;;;;4901946;29;45449;-75
2023/01/17 13:45:25;;;;;;;;;10.50;10.50;;;;;;;;4901854;28;45288;-75
2023/01/17 13:47:51;;;;;;;;;6.25;6.25;;;;;;;;4901225;28;46735;-75
2023/01/17 13:50:35;;;;;;;;;11.50;11.50;;;;;;;;4901659;28;45366;-76
2023/01/17 13:53:04;;;;;;;;;7.50;7.50;;;;;;;;4917875;28;45323;-76
2023/01/17 13:55:49;;;;;;;;;9.25;6.50;;;;;;;;4920091;28;45394;-75
2023/01/17 13:58:27;;;;;;;;;10.25;10.25;;;;;;;;4901416;28;45354;-74
2023/01/17 14:00:53;;;;;;;;;10.25;8.25;;;;;;;;4901623;28;45267;-74
2023/01/17 14:03:38;;;;;;;;;15.00;11.50;;;;;;;;4901652;28;45405;-74
2023/01/17 14:06:23;;;;;;;;;12.75;11.00;;;;;;;;4902004;29;45418;-76
2023/01/17 14:08:49;;;;;;;;;17.00;14.25;;;;;;;;4901833;29;46341;-74
2023/01/17 14:11:15;;;;;;;;;14.00;14.00;;;;;;;;4903025;28;45387;-74
2023/01/17 14:13:40;;;;;;;;;10.50;7.75;;;;;;;;4901415;28;45447;-76
2023/01/17 14:16:20;;;;;;;;;15.00;11.50;;;;;;;;4903752;28;45355;-76
2023/01/17 14:18:46;;;;;;;;;10.75;9.75;;;;;;;;4902773;28;45366;-76
2023/01/17 14:21:22;;;;;;;;;13.50;11.25;;;;;;;;4901930;29;46667;-75
2023/01/17 14:23:56;;;;;;;;;11.75;11.75;;;;;;;;4901694;28;45259;-75
2023/01/17 14:26:26;;;;;;;;;11.25;7.75;;;;;;;;4900767;28;45352;-74
2023/01/17 14:28:51;;;;;;;;;16.25;11.50;;;;;;;;4900941;28;46331;-77
2023/01/17 14:31:20;;;;;;;;;10.50;9.25;;;;;;;;4900590;28;45372;-76
2023/01/17 14:33:46;;;;;;;;;11.00;9.75;;;;;;;;4901049;28;45410;-76
2023/01/17 14:36:29;;;;;;;;;11.75;7.75;;;;;;;;4900997;28;45431;-76
2023/01/17 14:39:00;;;;;;;;;10.25;10.00;;;;;;;;4901143;28;45323;-77
2023/01/17 14:41:27;;;;;;;;;10.50;8.25;;;;;;;;4899762;29;46168;-76
2023/01/17 14:43:52;;;;;;;;;6.75;6.75;;;;;;;;4900882;28;45307;-75
2023/01/17 14:46:26;;;;;;;;;10.75;10.75;;;;;;;;4900531;28;45387;-74
2023/01/17 14:48:58;;;;;;;;;11.00;11.00;;;;;;;;4900573;28;46073;-76
2023/01/17 14:51:23;;;;;;;;;12.75;10.00;;;;;;;;4903938;28;45286;-76
2023/01/17 14:54:12;;;;;;;;;3.25;3.25;;;;;;;;4920146;28;45525;-75
2023/01/17 14:56:37;;;;;;;;;12.00;9.25;;;;;;;;4917000;28;45338;-74
2023/01/17 14:59:13;;;;;;;;;10.00;8.00;;;;;;;;4918225;28;46432;-75
2023/01/17 15:01:39;;;;;;;;;11.50;11.50;;;;;;;;4920245;28;45450;-75
2023/01/17 15:04:05;;;;;;;;;14.00;11.25;;;;;;;;4919533;28;45347;-75
2023/01/17 15:06:37;;;;;;;;;11.00;11.00;;;;;;;;4918524;28;45450;-74
2023/01/17 15:09:16;;;;;;;;;9.75;9.75;;;;;;;;4919555;28;45480;-74
2023/01/17 15:11:43;;;;;;;;;18.00;10.75;;;;;;;;4916233;28;45458;-75
2023/01/17 15:14:11;;;;;;;;;12.00;9.25;;;;;;;;4919355;28;45345;-74
2023/01/17 15:16:37;;;;;;;;;6.50;6.00;;;;;;;;4919637;28;45319;-74
2023/01/17 15:19:09;;;;;;;;;13.50;11.25;;;;;;;;4917784;28;46227;-74
2023/01/17 15:21:41;;;;;;;;;14.75;12.75;;;;;;;;4918092;28;45425;-75
2023/01/17 15:24:07;;;;;;;;;9.00;7.25;;;;;;;;4918211;28;45351;-74
2023/01/17 15:26:33;;;;;;;;;12.00;9.50;;;;;;;;4918196;28;45567;-73
2023/01/17 15:29:04;;;;;;;;;12.50;9.25;;;;;;;;4918942;28;46003;-74
2023/01/17 15:31:40;;;;;;;;;9.25;8.00;;;;;;;;4918502;28;45881;-74
2023/01/17 15:34:06;;;;;;;;;11.50;9.25;;;;;;;;4919303;28;45393;-74
2023/01/17 15:36:33;;;;;;;;;13.50;13.25;;;;;;;;4919271;28;45371;-74
2023/01/17 15:39:18;;;;;;;;;10.00;8.00;;;;;;;;4917487;28;48093;-74
2023/01/17 15:41:44;;;;;;;;;15.25;12.50;;;;;;;;4918939;28;45317;-74
2023/01/17 15:44:41;;;;;;;;;13.25;12.00;;;;;;;;4918850;28;45327;-74
2023/01/17 15:47:26;;;;;;;;;12.50;10.50;;;;;;;;4897478;29;45391;-74
2023/01/17 15:49:52;;;;;;;;;16.00;12.75;;;;;;;;4887485;29;46237;-74
2023/01/17 15:52:17;;;;;;;;;18.75;15.25;;;;;;;;4897061;29;45450;-75